Аэропорт: Чертовицкое. Воронеж

ICAO: UUOO

METAR:
2018/09/23 11:00
UUOO 231100Z 29005MPS 9999 BKN050CB 14/11 Q1012 R30/290155 NOSIG RMK QFE746
METAR:
2016/06/11 16:06
TAF COR TAF 
      AMD UUOO 111501Z 1116/1224 23005MPS 9999 -SHRA BKN030CB 
      TEMPO 1116/1121 3000 -TSRA SCT007 BKN020CB